LFST 301030Z AUTO 01012KT 340V040 CAVOK 21/05 Q1020 TEMPO 05015G25KT

ElémentsDécodage
LFST Station météo située sur l'aérodrome de STRASBOURG Entzheim
301030Z émis le 30 du mois à 10h30 UTC
AUTO Bulletin édité par un automate
01012KT vent du 010°, 12 noeuds
340V040 vent de direction variable entre 340° et 040°
CAVOK Ceiling And Visibility OK
- Visibilité de 10 Km ou plus
- Pas de nuage au-dessous de 1500m ou au-dessous de l'altitude minimale du secteur la plus élevée (si>1500m) et absence de CB
- pas de temps présent significatif
21/05 température 21°C, point de rosée 05°C
 soit une humidité relative de 35%
Q1020 la pression au niveau de la mer (QNH) est de 1020 hPa
TEMPO fluctuation temporaire prévue
05015G25KT vent du 050°, moyenne: 15 noeuds, avec rafales à 25 noeuds